Terminal Aerodrome Forecast
Issued by NWS Amarillo, TX

Home | Current Version | Previous Version | Text Only | Print | Product List | Glossary On
Versions: 1 2 3 4 5 6 7 8 9 10 11 12 13 14 15 16 17 18
958
FTUS44 KAMA 202355
TAFDHT
TAF
KDHT 202355Z 2100/2124 04014KT P6SM SCT050
     FM210800 04012KT P6SM OVC020
     FM212000 12009KT P6SM BKN030=

USA.gov is the U.S. government's official web portal to all federal, state and local government web resources and services.